KRGK

Details ICAO KRGK
Name RED WING RGNL
Region United States
Timezone America/Chicago (UTC-6.0)
Plans Departing 3
Arriving 5
Stats Elevation 780 ft / 238 m (AMSL)
Location 44.589354° -92.484970°
Runways 1
Magnetic Variation 0.385° W
Sunrise 2017-12-11 13:38:18 UTC / 2017-12-11 07:38:18 Local
Sunset 2017-12-11 22:31:14 UTC / 2017-12-11 16:31:14 Local
Advertisement - Login to hide

Runways

ID Width Length Bearing (true) Bearing (mag) Surface Threshold Offset Overrun Length
09 100 ft / 30 m 4,998 ft / 1,523 m 93.05° 93.43° Asphalt 0 ft / 0 m 0 ft / 0 m
27 100 ft / 30 m 4,998 ft / 1,523 m 273.06° 273.44° Asphalt 0 ft / 0 m 0 ft / 0 m

Approach Navaids

Runway Type Ident Frequency Range Bearing (true) Bearing (mag) Slope Elevation
09 Localiser IRGK 110.10 MHz 18 nm / 33 km 93.06° 93.44° - 762 ft / 232 m (AMSL)
09 Glidescope IRGK 110.10 MHz 10 nm / 19 km 93.06° 93.44° 3.00° 777 ft / 237 m (AMSL)

Map

Weather


0- 5 10 15 20 25 30 35+ Temperature / ° C

Clouds and Precipitation
Forecast for 2017-12-12 00:00 UTC. Updated 10 minutes ago

Ground ~20,000 ft ~40,000 ft Winds

METAR

KRGK 112335Z AUTO 35012G18KT 10SM OVC034 M01/M09 A3002 RMK AO2

TAF

Not found

Frequencies

Recorded 119.25 MHz AWOS 3
Unicom 123.05 MHz CTAF/UNICOM
Warning: Do not use this data for real-world aviation or navigation. No guarantee of current accuracy is given.